sensor_id;sensor_type;location;lat;lon;timestamp;P1;durP1;ratioP1;P2;durP2;ratioP2
31910;SDS011;18457;52.432;16.914;2023-03-03T00:00:46;100.60;;;26.30;;
31910;SDS011;18457;52.432;16.914;2023-03-03T00:03:21;111.80;;;27.20;;
31910;SDS011;18457;52.432;16.914;2023-03-03T00:05:55;83.10;;;26.70;;
31910;SDS011;18457;52.432;16.914;2023-03-03T00:08:28;99.00;;;27.40;;
31910;SDS011;18457;52.432;16.914;2023-03-03T00:11:00;113.80;;;27.30;;
31910;SDS011;18457;52.432;16.914;2023-03-03T00:13:38;86.60;;;27.80;;
31910;SDS011;18457;52.432;16.914;2023-03-03T00:16:15;116.60;;;28.50;;
31910;SDS011;18457;52.432;16.914;2023-03-03T00:18:52;93.60;;;26.40;;
31910;SDS011;18457;52.432;16.914;2023-03-03T00:21:26;90.80;;;27.50;;
31910;SDS011;18457;52.432;16.914;2023-03-03T00:24:14;137.90;;;29.30;;
31910;SDS011;18457;52.432;16.914;2023-03-03T00:26:49;97.30;;;27.60;;
31910;SDS011;18457;52.432;16.914;2023-03-03T00:29:25;99.50;;;27.80;;
31910;SDS011;18457;52.432;16.914;2023-03-03T00:32:07;113.80;;;27.80;;
31910;SDS011;18457;52.432;16.914;2023-03-03T00:34:50;102.20;;;24.20;;
31910;SDS011;18457;52.432;16.914;2023-03-03T00:37:26;111.30;;;26.10;;
31910;SDS011;18457;52.432;16.914;2023-03-03T00:40:15;90.50;;;23.70;;
31910;SDS011;18457;52.432;16.914;2023-03-03T00:42:52;125.70;;;25.00;;
31910;SDS011;18457;52.432;16.914;2023-03-03T00:45:28;112.00;;;26.50;;
31910;SDS011;18457;52.432;16.914;2023-03-03T00:48:10;107.00;;;23.50;;
31910;SDS011;18457;52.432;16.914;2023-03-03T00:50:52;119.20;;;25.20;;
31910;SDS011;18457;52.432;16.914;2023-03-03T00:53:26;104.50;;;26.10;;
31910;SDS011;18457;52.432;16.914;2023-03-03T00:55:59;90.60;;;25.20;;
31910;SDS011;18457;52.432;16.914;2023-03-03T00:58:31;124.50;;;28.20;;
31910;SDS011;18457;52.432;16.914;2023-03-03T01:01:03;111.60;;;27.40;;
31910;SDS011;18457;52.432;16.914;2023-03-03T01:03:41;129.90;;;26.40;;
31910;SDS011;18457;52.432;16.914;2023-03-03T01:06:13;77.00;;;24.20;;
31910;SDS011;18457;52.432;16.914;2023-03-03T01:08:45;77.00;;;17.00;;
31910;SDS011;18457;52.432;16.914;2023-03-03T01:11:18;102.00;;;21.80;;
31910;SDS011;18457;52.432;16.914;2023-03-03T01:13:53;83.00;;;21.70;;
31910;SDS011;18457;52.432;16.914;2023-03-03T01:16:27;83.50;;;21.60;;
31910;SDS011;18457;52.432;16.914;2023-03-03T01:18:59;86.90;;;22.00;;
31910;SDS011;18457;52.432;16.914;2023-03-03T01:21:31;75.50;;;22.70;;
31910;SDS011;18457;52.432;16.914;2023-03-03T01:24:04;86.80;;;21.10;;
31910;SDS011;18457;52.432;16.914;2023-03-03T01:26:36;63.40;;;19.90;;
31910;SDS011;18457;52.432;16.914;2023-03-03T01:29:08;75.50;;;20.00;;
31910;SDS011;18457;52.432;16.914;2023-03-03T01:31:40;63.70;;;20.10;;
31910;SDS011;18457;52.432;16.914;2023-03-03T01:34:12;65.70;;;19.70;;
31910;SDS011;18457;52.432;16.914;2023-03-03T01:36:44;91.00;;;20.20;;
31910;SDS011;18457;52.432;16.914;2023-03-03T01:39:16;66.00;;;18.30;;
31910;SDS011;18457;52.432;16.914;2023-03-03T01:41:48;94.20;;;20.00;;
31910;SDS011;18457;52.432;16.914;2023-03-03T01:44:20;49.60;;;15.00;;
31910;SDS011;18457;52.432;16.914;2023-03-03T01:46:53;51.00;;;15.10;;
31910;SDS011;18457;52.432;16.914;2023-03-03T01:49:29;78.80;;;19.70;;
31910;SDS011;18457;52.432;16.914;2023-03-03T01:52:08;71.00;;;20.10;;
31910;SDS011;18457;52.432;16.914;2023-03-03T01:54:44;55.70;;;19.30;;
31910;SDS011;18457;52.432;16.914;2023-03-03T01:57:22;59.70;;;19.20;;
31910;SDS011;18457;52.432;16.914;2023-03-03T01:59:58;108.20;;;20.10;;
31910;SDS011;18457;52.432;16.914;2023-03-03T02:02:40;79.40;;;18.40;;
31910;SDS011;18457;52.432;16.914;2023-03-03T02:05:14;62.90;;;16.70;;
31910;SDS011;18457;52.432;16.914;2023-03-03T02:10:18;53.20;;;16.20;;
31910;SDS011;18457;52.432;16.914;2023-03-03T02:12:53;63.80;;;17.50;;
31910;SDS011;18457;52.432;16.914;2023-03-03T02:15:26;62.50;;;17.20;;
31910;SDS011;18457;52.432;16.914;2023-03-03T02:18:01;53.30;;;17.20;;
31910;SDS011;18457;52.432;16.914;2023-03-03T02:20:39;68.60;;;15.70;;
31910;SDS011;18457;52.432;16.914;2023-03-03T02:23:20;74.20;;;17.30;;
31910;SDS011;18457;52.432;16.914;2023-03-03T02:26:02;68.70;;;17.80;;
31910;SDS011;18457;52.432;16.914;2023-03-03T02:28:37;56.80;;;16.60;;
31910;SDS011;18457;52.432;16.914;2023-03-03T02:31:11;69.80;;;16.70;;
31910;SDS011;18457;52.432;16.914;2023-03-03T02:33:45;53.10;;;15.70;;
31910;SDS011;18457;52.432;16.914;2023-03-03T02:36:20;57.90;;;16.50;;
31910;SDS011;18457;52.432;16.914;2023-03-03T02:38:56;59.00;;;16.10;;
31910;SDS011;18457;52.432;16.914;2023-03-03T02:41:33;61.80;;;17.50;;
31910;SDS011;18457;52.432;16.914;2023-03-03T02:44:10;44.20;;;17.00;;
31910;SDS011;18457;52.432;16.914;2023-03-03T02:46:44;53.10;;;18.10;;
31910;SDS011;18457;52.432;16.914;2023-03-03T02:49:18;56.80;;;15.90;;
31910;SDS011;18457;52.432;16.914;2023-03-03T02:51:51;53.40;;;15.50;;
31910;SDS011;18457;52.432;16.914;2023-03-03T02:54:25;45.90;;;14.90;;
31910;SDS011;18457;52.432;16.914;2023-03-03T02:56:59;43.50;;;15.60;;
31910;SDS011;18457;52.432;16.914;2023-03-03T02:59:31;53.20;;;16.30;;
31910;SDS011;18457;52.432;16.914;2023-03-03T03:02:09;52.10;;;16.60;;
31910;SDS011;18457;52.432;16.914;2023-03-03T03:07:17;41.90;;;13.40;;
31910;SDS011;18457;52.432;16.914;2023-03-03T03:09:51;40.80;;;13.70;;
31910;SDS011;18457;52.432;16.914;2023-03-03T03:12:23;44.20;;;15.00;;
31910;SDS011;18457;52.432;16.914;2023-03-03T03:14:55;44.30;;;14.30;;
31910;SDS011;18457;52.432;16.914;2023-03-03T03:17:27;58.50;;;15.30;;
31910;SDS011;18457;52.432;16.914;2023-03-03T03:20:00;42.50;;;13.60;;
31910;SDS011;18457;52.432;16.914;2023-03-03T03:22:33;52.30;;;13.60;;
31910;SDS011;18457;52.432;16.914;2023-03-03T03:25:06;38.20;;;8.90;;
31910;SDS011;18457;52.432;16.914;2023-03-03T03:27:39;85.80;;;14.70;;
31910;SDS011;18457;52.432;16.914;2023-03-03T03:30:11;75.10;;;15.90;;
31910;SDS011;18457;52.432;16.914;2023-03-03T03:32:44;50.70;;;11.90;;
31910;SDS011;18457;52.432;16.914;2023-03-03T03:35:17;36.80;;;12.00;;
31910;SDS011;18457;52.432;16.914;2023-03-03T03:37:49;36.20;;;10.30;;
31910;SDS011;18457;52.432;16.914;2023-03-03T03:40:21;41.80;;;11.50;;
31910;SDS011;18457;52.432;16.914;2023-03-03T03:42:55;36.70;;;11.20;;
31910;SDS011;18457;52.432;16.914;2023-03-03T03:45:27;30.10;;;12.30;;
31910;SDS011;18457;52.432;16.914;2023-03-03T03:47:59;38.10;;;11.20;;
31910;SDS011;18457;52.432;16.914;2023-03-03T03:50:31;41.90;;;10.70;;
31910;SDS011;18457;52.432;16.914;2023-03-03T03:53:03;62.40;;;12.00;;
31910;SDS011;18457;52.432;16.914;2023-03-03T03:55:36;43.90;;;13.10;;
31910;SDS011;18457;52.432;16.914;2023-03-03T03:58:08;41.20;;;12.90;;
31910;SDS011;18457;52.432;16.914;2023-03-03T04:00:44;31.30;;;11.00;;
31910;SDS011;18457;52.432;16.914;2023-03-03T04:05:47;40.60;;;12.40;;
31910;SDS011;18457;52.432;16.914;2023-03-03T04:08:22;42.00;;;11.30;;
31910;SDS011;18457;52.432;16.914;2023-03-03T04:10:54;36.90;;;12.60;;
31910;SDS011;18457;52.432;16.914;2023-03-03T04:13:27;36.50;;;11.10;;
31910;SDS011;18457;52.432;16.914;2023-03-03T04:16:00;34.10;;;11.90;;
31910;SDS011;18457;52.432;16.914;2023-03-03T04:18:32;33.40;;;11.30;;
31910;SDS011;18457;52.432;16.914;2023-03-03T04:21:04;44.40;;;13.90;;
31910;SDS011;18457;52.432;16.914;2023-03-03T04:23:40;38.70;;;12.40;;
31910;SDS011;18457;52.432;16.914;2023-03-03T04:26:12;33.90;;;11.50;;
31910;SDS011;18457;52.432;16.914;2023-03-03T04:28:45;48.90;;;12.90;;
31910;SDS011;18457;52.432;16.914;2023-03-03T04:31:17;33.40;;;12.10;;
31910;SDS011;18457;52.432;16.914;2023-03-03T04:33:49;38.50;;;13.20;;
31910;SDS011;18457;52.432;16.914;2023-03-03T04:36:22;36.20;;;12.30;;
31910;SDS011;18457;52.432;16.914;2023-03-03T04:38:54;37.00;;;12.50;;
31910;SDS011;18457;52.432;16.914;2023-03-03T04:41:27;36.20;;;12.60;;
31910;SDS011;18457;52.432;16.914;2023-03-03T04:43:59;45.00;;;12.10;;
31910;SDS011;18457;52.432;16.914;2023-03-03T04:46:31;40.10;;;12.50;;
31910;SDS011;18457;52.432;16.914;2023-03-03T04:49:05;35.70;;;12.40;;
31910;SDS011;18457;52.432;16.914;2023-03-03T04:51:41;38.50;;;13.80;;
31910;SDS011;18457;52.432;16.914;2023-03-03T04:56:44;33.80;;;12.60;;
31910;SDS011;18457;52.432;16.914;2023-03-03T04:59:19;38.00;;;13.10;;
31910;SDS011;18457;52.432;16.914;2023-03-03T05:01:51;34.80;;;12.50;;
31910;SDS011;18457;52.432;16.914;2023-03-03T05:04:23;37.60;;;13.70;;
31910;SDS011;18457;52.432;16.914;2023-03-03T05:06:55;48.70;;;14.80;;
31910;SDS011;18457;52.432;16.914;2023-03-03T05:09:28;37.40;;;14.50;;
31910;SDS011;18457;52.432;16.914;2023-03-03T05:12:01;44.40;;;15.80;;
31910;SDS011;18457;52.432;16.914;2023-03-03T05:14:33;43.60;;;15.50;;
31910;SDS011;18457;52.432;16.914;2023-03-03T05:17:05;45.80;;;14.80;;
31910;SDS011;18457;52.432;16.914;2023-03-03T05:19:37;48.50;;;16.90;;
31910;SDS011;18457;52.432;16.914;2023-03-03T05:22:09;50.30;;;16.90;;
31910;SDS011;18457;52.432;16.914;2023-03-03T05:24:41;61.90;;;14.30;;
31910;SDS011;18457;52.432;16.914;2023-03-03T05:27:17;50.70;;;14.40;;
31910;SDS011;18457;52.432;16.914;2023-03-03T05:29:50;44.90;;;14.50;;
31910;SDS011;18457;52.432;16.914;2023-03-03T05:32:21;37.30;;;13.00;;
31910;SDS011;18457;52.432;16.914;2023-03-03T05:34:53;46.40;;;14.30;;
31910;SDS011;18457;52.432;16.914;2023-03-03T05:37:26;45.30;;;14.80;;
31910;SDS011;18457;52.432;16.914;2023-03-03T05:40:01;47.40;;;16.50;;
31910;SDS011;18457;52.432;16.914;2023-03-03T05:42:34;45.10;;;13.40;;
31910;SDS011;18457;52.432;16.914;2023-03-03T05:45:07;45.20;;;14.90;;
31910;SDS011;18457;52.432;16.914;2023-03-03T05:47:39;46.60;;;14.50;;
31910;SDS011;18457;52.432;16.914;2023-03-03T05:50:11;37.20;;;12.90;;
31910;SDS011;18457;52.432;16.914;2023-03-03T05:52:46;37.70;;;12.70;;
31910;SDS011;18457;52.432;16.914;2023-03-03T05:55:19;35.70;;;10.70;;
31910;SDS011;18457;52.432;16.914;2023-03-03T05:57:51;27.10;;;10.30;;
31910;SDS011;18457;52.432;16.914;2023-03-03T06:00:24;35.20;;;11.20;;
31910;SDS011;18457;52.432;16.914;2023-03-03T06:02:57;32.10;;;12.00;;
31910;SDS011;18457;52.432;16.914;2023-03-03T06:05:29;30.70;;;10.30;;
31910;SDS011;18457;52.432;16.914;2023-03-03T06:08:01;31.10;;;11.70;;
31910;SDS011;18457;52.432;16.914;2023-03-03T06:10:33;38.90;;;13.80;;
31910;SDS011;18457;52.432;16.914;2023-03-03T06:13:05;34.60;;;12.00;;
31910;SDS011;18457;52.432;16.914;2023-03-03T06:15:37;30.40;;;11.40;;
31910;SDS011;18457;52.432;16.914;2023-03-03T06:18:11;40.80;;;12.80;;
31910;SDS011;18457;52.432;16.914;2023-03-03T06:20:49;37.20;;;12.50;;
31910;SDS011;18457;52.432;16.914;2023-03-03T06:23:29;34.30;;;12.60;;
31910;SDS011;18457;52.432;16.914;2023-03-03T06:26:07;33.30;;;13.10;;
31910;SDS011;18457;52.432;16.914;2023-03-03T06:28:41;39.80;;;13.30;;
31910;SDS011;18457;52.432;16.914;2023-03-03T06:31:14;36.10;;;12.40;;
31910;SDS011;18457;52.432;16.914;2023-03-03T06:33:48;32.60;;;10.70;;
31910;SDS011;18457;52.432;16.914;2023-03-03T06:36:22;33.00;;;12.40;;
31910;SDS011;18457;52.432;16.914;2023-03-03T06:38:54;35.50;;;11.20;;
31910;SDS011;18457;52.432;16.914;2023-03-03T06:41:26;48.30;;;12.90;;
31910;SDS011;18457;52.432;16.914;2023-03-03T06:43:58;31.70;;;10.40;;
31910;SDS011;18457;52.432;16.914;2023-03-03T06:46:31;26.70;;;8.60;;
31910;SDS011;18457;52.432;16.914;2023-03-03T06:49:02;30.70;;;11.20;;
31910;SDS011;18457;52.432;16.914;2023-03-03T06:51:35;27.90;;;8.90;;
31910;SDS011;18457;52.432;16.914;2023-03-03T06:54:10;30.70;;;11.40;;
31910;SDS011;18457;52.432;16.914;2023-03-03T06:56:44;32.40;;;11.20;;
31910;SDS011;18457;52.432;16.914;2023-03-03T06:59:17;29.00;;;10.00;;
31910;SDS011;18457;52.432;16.914;2023-03-03T07:01:50;33.40;;;12.20;;
31910;SDS011;18457;52.432;16.914;2023-03-03T07:04:25;42.50;;;11.60;;
31910;SDS011;18457;52.432;16.914;2023-03-03T07:07:04;24.60;;;9.80;;
31910;SDS011;18457;52.432;16.914;2023-03-03T07:09:44;40.10;;;12.10;;
31910;SDS011;18457;52.432;16.914;2023-03-03T07:12:17;32.20;;;11.50;;
31910;SDS011;18457;52.432;16.914;2023-03-03T07:14:52;38.00;;;12.60;;
31910;SDS011;18457;52.432;16.914;2023-03-03T07:17:30;32.70;;;12.30;;
31910;SDS011;18457;52.432;16.914;2023-03-03T07:20:07;27.40;;;11.40;;
31910;SDS011;18457;52.432;16.914;2023-03-03T07:22:47;22.80;;;9.30;;
31910;SDS011;18457;52.432;16.914;2023-03-03T07:27:56;30.60;;;10.70;;
31910;SDS011;18457;52.432;16.914;2023-03-03T07:30:30;27.20;;;9.50;;
31910;SDS011;18457;52.432;16.914;2023-03-03T07:33:04;36.70;;;10.90;;
31910;SDS011;18457;52.432;16.914;2023-03-03T07:35:45;29.70;;;9.90;;
31910;SDS011;18457;52.432;16.914;2023-03-03T07:38:21;35.10;;;12.20;;
31910;SDS011;18457;52.432;16.914;2023-03-03T07:40:59;30.40;;;11.70;;
31910;SDS011;18457;52.432;16.914;2023-03-03T07:43:36;29.00;;;10.80;;
31910;SDS011;18457;52.432;16.914;2023-03-03T07:48:59;28.40;;;10.50;;
31910;SDS011;18457;52.432;16.914;2023-03-03T07:51:41;27.30;;;10.60;;
31910;SDS011;18457;52.432;16.914;2023-03-03T07:54:25;31.50;;;11.40;;
31910;SDS011;18457;52.432;16.914;2023-03-03T07:57:11;33.10;;;11.10;;
31910;SDS011;18457;52.432;16.914;2023-03-03T07:59:53;31.60;;;11.30;;
31910;SDS011;18457;52.432;16.914;2023-03-03T08:02:41;34.60;;;11.90;;
31910;SDS011;18457;52.432;16.914;2023-03-03T08:05:28;26.60;;;10.40;;
31910;SDS011;18457;52.432;16.914;2023-03-03T08:08:13;31.30;;;11.20;;
31910;SDS011;18457;52.432;16.914;2023-03-03T08:10:51;29.90;;;10.90;;
31910;SDS011;18457;52.432;16.914;2023-03-03T08:13:26;36.50;;;12.00;;
31910;SDS011;18457;52.432;16.914;2023-03-03T08:16:20;22.70;;;9.00;;
31910;SDS011;18457;52.432;16.914;2023-03-03T08:18:59;33.70;;;11.90;;
31910;SDS011;18457;52.432;16.914;2023-03-03T08:21:34;38.10;;;12.90;;
31910;SDS011;18457;52.432;16.914;2023-03-03T08:24:06;33.90;;;11.90;;
31910;SDS011;18457;52.432;16.914;2023-03-03T08:26:38;35.30;;;13.00;;
31910;SDS011;18457;52.432;16.914;2023-03-03T08:29:10;31.50;;;12.10;;
31910;SDS011;18457;52.432;16.914;2023-03-03T08:31:42;38.50;;;12.10;;
31910;SDS011;18457;52.432;16.914;2023-03-03T08:34:14;33.60;;;12.40;;
31910;SDS011;18457;52.432;16.914;2023-03-03T08:36:46;36.60;;;12.60;;
31910;SDS011;18457;52.432;16.914;2023-03-03T08:39:18;40.80;;;15.00;;
31910;SDS011;18457;52.432;16.914;2023-03-03T08:41:50;39.00;;;14.00;;
31910;SDS011;18457;52.432;16.914;2023-03-03T08:44:22;29.70;;;11.80;;
31910;SDS011;18457;52.432;16.914;2023-03-03T08:46:54;33.50;;;11.30;;
31910;SDS011;18457;52.432;16.914;2023-03-03T08:49:26;30.90;;;12.20;;
31910;SDS011;18457;52.432;16.914;2023-03-03T08:52:19;35.90;;;13.00;;
31910;SDS011;18457;52.432;16.914;2023-03-03T08:54:51;32.00;;;11.10;;
31910;SDS011;18457;52.432;16.914;2023-03-03T08:57:23;35.10;;;13.20;;
31910;SDS011;18457;52.432;16.914;2023-03-03T08:59:55;43.70;;;14.20;;
31910;SDS011;18457;52.432;16.914;2023-03-03T09:02:27;43.10;;;14.10;;
31910;SDS011;18457;52.432;16.914;2023-03-03T09:04:59;43.60;;;14.70;;
31910;SDS011;18457;52.432;16.914;2023-03-03T09:07:31;29.30;;;10.90;;
31910;SDS011;18457;52.432;16.914;2023-03-03T09:10:04;41.50;;;15.70;;
31910;SDS011;18457;52.432;16.914;2023-03-03T09:12:38;42.00;;;14.70;;
31910;SDS011;18457;52.432;16.914;2023-03-03T09:15:14;45.30;;;15.00;;
31910;SDS011;18457;52.432;16.914;2023-03-03T09:17:52;39.40;;;14.00;;
31910;SDS011;18457;52.432;16.914;2023-03-03T09:20:31;40.70;;;14.80;;
31910;SDS011;18457;52.432;16.914;2023-03-03T09:29:22;38.00;;;13.20;;
31910;SDS011;18457;52.432;16.914;2023-03-03T09:31:57;34.60;;;13.30;;
31910;SDS011;18457;52.432;16.914;2023-03-03T09:34:36;40.80;;;14.60;;
31910;SDS011;18457;52.432;16.914;2023-03-03T09:37:19;35.10;;;13.90;;
31910;SDS011;18457;52.432;16.914;2023-03-03T09:39:53;34.20;;;13.40;;
31910;SDS011;18457;52.432;16.914;2023-03-03T09:42:30;40.70;;;15.10;;
31910;SDS011;18457;52.432;16.914;2023-03-03T09:45:24;38.00;;;14.60;;
31910;SDS011;18457;52.432;16.914;2023-03-03T09:48:18;45.80;;;14.10;;
31910;SDS011;18457;52.432;16.914;2023-03-03T09:51:08;48.80;;;15.80;;
31910;SDS011;18457;52.432;16.914;2023-03-03T09:53:52;40.30;;;14.60;;
31910;SDS011;18457;52.432;16.914;2023-03-03T09:56:36;46.80;;;16.00;;
31910;SDS011;18457;52.432;16.914;2023-03-03T09:59:17;53.80;;;15.70;;
31910;SDS011;18457;52.432;16.914;2023-03-03T10:02:03;42.30;;;15.10;;
31910;SDS011;18457;52.432;16.914;2023-03-03T10:04:55;52.40;;;17.20;;
31910;SDS011;18457;52.432;16.914;2023-03-03T10:07:44;44.60;;;15.80;;
31910;SDS011;18457;52.432;16.914;2023-03-03T10:10:30;44.80;;;15.30;;
31910;SDS011;18457;52.432;16.914;2023-03-03T10:13:17;39.70;;;14.30;;
31910;SDS011;18457;52.432;16.914;2023-03-03T10:15:59;43.90;;;13.60;;
31910;SDS011;18457;52.432;16.914;2023-03-03T10:18:46;42.20;;;15.20;;
31910;SDS011;18457;52.432;16.914;2023-03-03T10:21:28;38.00;;;13.30;;
31910;SDS011;18457;52.432;16.914;2023-03-03T10:24:08;48.70;;;14.60;;
31910;SDS011;18457;52.432;16.914;2023-03-03T10:26:53;55.50;;;17.00;;
31910;SDS011;18457;52.432;16.914;2023-03-03T10:29:45;42.40;;;14.50;;
31910;SDS011;18457;52.432;16.914;2023-03-03T10:32:34;43.90;;;14.30;;
31910;SDS011;18457;52.432;16.914;2023-03-03T10:38:38;50.10;;;16.40;;
31910;SDS011;18457;52.432;16.914;2023-03-03T10:41:30;38.20;;;14.10;;
31910;SDS011;18457;52.432;16.914;2023-03-03T10:44:17;43.30;;;16.50;;
31910;SDS011;18457;52.432;16.914;2023-03-03T10:47:03;38.20;;;14.20;;
31910;SDS011;18457;52.432;16.914;2023-03-03T10:49:59;40.00;;;14.80;;
31910;SDS011;18457;52.432;16.914;2023-03-03T10:52:40;49.00;;;13.80;;
31910;SDS011;18457;52.432;16.914;2023-03-03T10:55:20;46.00;;;14.90;;
31910;SDS011;18457;52.432;16.914;2023-03-03T10:58:08;48.20;;;15.00;;
31910;SDS011;18457;52.432;16.914;2023-03-03T11:00:54;46.60;;;14.30;;
31910;SDS011;18457;52.432;16.914;2023-03-03T11:03:40;51.60;;;16.40;;
31910;SDS011;18457;52.432;16.914;2023-03-03T11:06:25;43.70;;;15.90;;
31910;SDS011;18457;52.432;16.914;2023-03-03T11:09:04;42.40;;;14.00;;
31910;SDS011;18457;52.432;16.914;2023-03-03T11:11:45;37.70;;;14.00;;
31910;SDS011;18457;52.432;16.914;2023-03-03T11:14:25;44.10;;;15.70;;
31910;SDS011;18457;52.432;16.914;2023-03-03T11:17:03;46.30;;;15.20;;
31910;SDS011;18457;52.432;16.914;2023-03-03T11:19:52;35.00;;;13.60;;
31910;SDS011;18457;52.432;16.914;2023-03-03T11:22:32;44.90;;;15.70;;
31910;SDS011;18457;52.432;16.914;2023-03-03T11:25:19;57.70;;;15.60;;
31910;SDS011;18457;52.432;16.914;2023-03-03T11:28:02;48.60;;;16.20;;
31910;SDS011;18457;52.432;16.914;2023-03-03T11:30:45;52.20;;;17.80;;
31910;SDS011;18457;52.432;16.914;2023-03-03T11:33:36;42.10;;;13.90;;
31910;SDS011;18457;52.432;16.914;2023-03-03T11:36:15;42.30;;;13.90;;
31910;SDS011;18457;52.432;16.914;2023-03-03T11:38:55;41.70;;;15.00;;
31910;SDS011;18457;52.432;16.914;2023-03-03T11:41:32;44.10;;;14.90;;
31910;SDS011;18457;52.432;16.914;2023-03-03T11:44:10;44.70;;;15.20;;
31910;SDS011;18457;52.432;16.914;2023-03-03T11:46:50;51.80;;;16.40;;
31910;SDS011;18457;52.432;16.914;2023-03-03T11:49:27;47.00;;;16.60;;
31910;SDS011;18457;52.432;16.914;2023-03-03T11:52:10;55.60;;;17.20;;
31910;SDS011;18457;52.432;16.914;2023-03-03T11:54:51;54.80;;;18.60;;
31910;SDS011;18457;52.432;16.914;2023-03-03T11:57:31;48.50;;;17.20;;
31910;SDS011;18457;52.432;16.914;2023-03-03T12:00:24;48.80;;;17.50;;
31910;SDS011;18457;52.432;16.914;2023-03-03T12:06:09;37.80;;;14.20;;
31910;SDS011;18457;52.432;16.914;2023-03-03T12:08:56;47.20;;;16.60;;
31910;SDS011;18457;52.432;16.914;2023-03-03T12:11:42;57.90;;;17.70;;
31910;SDS011;18457;52.432;16.914;2023-03-03T12:14:29;46.70;;;17.20;;
31910;SDS011;18457;52.432;16.914;2023-03-03T12:17:15;49.30;;;16.70;;
31910;SDS011;18457;52.432;16.914;2023-03-03T12:20:01;44.70;;;16.40;;
31910;SDS011;18457;52.432;16.914;2023-03-03T12:22:39;46.00;;;16.60;;
31910;SDS011;18457;52.432;16.914;2023-03-03T12:25:35;55.70;;;16.10;;
31910;SDS011;18457;52.432;16.914;2023-03-03T12:28:10;54.60;;;17.10;;
31910;SDS011;18457;52.432;16.914;2023-03-03T12:30:52;55.70;;;19.20;;
31910;SDS011;18457;52.432;16.914;2023-03-03T12:33:47;48.20;;;18.70;;
31910;SDS011;18457;52.432;16.914;2023-03-03T12:39:37;53.00;;;19.30;;
31910;SDS011;18457;52.432;16.914;2023-03-03T12:42:18;63.00;;;20.50;;
31910;SDS011;18457;52.432;16.914;2023-03-03T12:45:01;48.50;;;16.90;;
31910;SDS011;18457;52.432;16.914;2023-03-03T12:47:44;54.40;;;19.60;;
31910;SDS011;18457;52.432;16.914;2023-03-03T12:50:23;64.40;;;20.20;;
31910;SDS011;18457;52.432;16.914;2023-03-03T12:53:07;60.30;;;19.10;;
31910;SDS011;18457;52.432;16.914;2023-03-03T12:55:50;52.50;;;17.00;;
31910;SDS011;18457;52.432;16.914;2023-03-03T12:58:29;52.40;;;18.00;;
31910;SDS011;18457;52.432;16.914;2023-03-03T13:01:21;48.80;;;16.50;;
31910;SDS011;18457;52.432;16.914;2023-03-03T13:04:04;45.70;;;15.80;;
31910;SDS011;18457;52.432;16.914;2023-03-03T13:06:43;38.50;;;15.00;;
31910;SDS011;18457;52.432;16.914;2023-03-03T13:09:25;44.80;;;15.50;;
31910;SDS011;18457;52.432;16.914;2023-03-03T13:12:19;36.20;;;15.20;;
31910;SDS011;18457;52.432;16.914;2023-03-03T13:15:02;43.40;;;14.80;;
31910;SDS011;18457;52.432;16.914;2023-03-03T13:17:47;42.10;;;15.10;;
31910;SDS011;18457;52.432;16.914;2023-03-03T13:20:32;40.70;;;14.40;;
31910;SDS011;18457;52.432;16.914;2023-03-03T13:23:11;42.60;;;14.20;;
31910;SDS011;18457;52.432;16.914;2023-03-03T13:25:57;42.00;;;14.30;;
31910;SDS011;18457;52.432;16.914;2023-03-03T13:28:37;37.90;;;14.10;;
31910;SDS011;18457;52.432;16.914;2023-03-03T13:31:17;35.80;;;12.70;;
31910;SDS011;18457;52.432;16.914;2023-03-03T13:33:52;38.80;;;13.40;;
31910;SDS011;18457;52.432;16.914;2023-03-03T13:36:27;35.00;;;12.70;;
31910;SDS011;18457;52.432;16.914;2023-03-03T13:39:09;32.10;;;12.40;;
31910;SDS011;18457;52.432;16.914;2023-03-03T13:41:50;35.10;;;14.00;;
31910;SDS011;18457;52.432;16.914;2023-03-03T13:44:29;40.80;;;13.90;;
31910;SDS011;18457;52.432;16.914;2023-03-03T13:47:09;40.30;;;14.20;;
31910;SDS011;18457;52.432;16.914;2023-03-03T13:49:57;40.20;;;14.80;;
31910;SDS011;18457;52.432;16.914;2023-03-03T13:52:39;34.60;;;14.20;;
31910;SDS011;18457;52.432;16.914;2023-03-03T13:55:23;39.50;;;16.00;;
31910;SDS011;18457;52.432;16.914;2023-03-03T13:58:02;40.00;;;15.60;;
31910;SDS011;18457;52.432;16.914;2023-03-03T14:00:45;38.10;;;14.10;;
31910;SDS011;18457;52.432;16.914;2023-03-03T14:03:39;43.50;;;15.00;;
31910;SDS011;18457;52.432;16.914;2023-03-03T14:06:23;38.70;;;15.20;;
31910;SDS011;18457;52.432;16.914;2023-03-03T14:09:02;36.20;;;14.00;;
31910;SDS011;18457;52.432;16.914;2023-03-03T14:11:47;39.00;;;15.20;;
31910;SDS011;18457;52.432;16.914;2023-03-03T14:14:32;40.20;;;15.60;;
31910;SDS011;18457;52.432;16.914;2023-03-03T14:17:16;33.60;;;14.10;;
31910;SDS011;18457;52.432;16.914;2023-03-03T14:19:59;35.10;;;14.60;;
31910;SDS011;18457;52.432;16.914;2023-03-03T14:22:42;29.90;;;11.70;;
31910;SDS011;18457;52.432;16.914;2023-03-03T14:25:21;35.70;;;12.60;;
31910;SDS011;18457;52.432;16.914;2023-03-03T14:28:00;31.00;;;11.10;;
31910;SDS011;18457;52.432;16.914;2023-03-03T14:30:38;29.10;;;11.70;;
31910;SDS011;18457;52.432;16.914;2023-03-03T14:33:19;27.10;;;10.40;;
31910;SDS011;18457;52.432;16.914;2023-03-03T14:38:44;29.50;;;10.20;;
31910;SDS011;18457;52.432;16.914;2023-03-03T14:41:20;26.50;;;12.10;;
31910;SDS011;18457;52.432;16.914;2023-03-03T14:44:22;33.40;;;11.70;;
31910;SDS011;18457;52.432;16.914;2023-03-03T14:49:50;37.30;;;14.00;;
31910;SDS011;18457;52.432;16.914;2023-03-03T14:52:25;38.80;;;16.10;;
31910;SDS011;18457;52.432;16.914;2023-03-03T14:54:58;43.90;;;14.70;;
31910;SDS011;18457;52.432;16.914;2023-03-03T14:57:38;33.30;;;13.00;;
31910;SDS011;18457;52.432;16.914;2023-03-03T15:00:27;38.40;;;14.90;;
31910;SDS011;18457;52.432;16.914;2023-03-03T15:03:15;32.60;;;13.80;;
31910;SDS011;18457;52.432;16.914;2023-03-03T15:05:52;39.80;;;16.00;;
31910;SDS011;18457;52.432;16.914;2023-03-03T15:08:29;38.70;;;14.60;;
31910;SDS011;18457;52.432;16.914;2023-03-03T15:11:12;36.20;;;14.00;;
31910;SDS011;18457;52.432;16.914;2023-03-03T15:13:52;30.50;;;13.30;;
31910;SDS011;18457;52.432;16.914;2023-03-03T15:16:33;32.40;;;13.20;;
31910;SDS011;18457;52.432;16.914;2023-03-03T15:19:17;35.10;;;13.80;;
31910;SDS011;18457;52.432;16.914;2023-03-03T15:22:04;32.40;;;13.50;;
31910;SDS011;18457;52.432;16.914;2023-03-03T15:24:47;31.10;;;13.30;;
31910;SDS011;18457;52.432;16.914;2023-03-03T15:27:27;31.10;;;13.20;;
31910;SDS011;18457;52.432;16.914;2023-03-03T15:30:06;33.20;;;12.90;;
31910;SDS011;18457;52.432;16.914;2023-03-03T15:32:47;20.30;;;9.20;;
31910;SDS011;18457;52.432;16.914;2023-03-03T15:35:26;34.60;;;12.40;;
31910;SDS011;18457;52.432;16.914;2023-03-03T15:38:12;34.70;;;13.80;;
31910;SDS011;18457;52.432;16.914;2023-03-03T15:40:53;28.80;;;12.90;;
31910;SDS011;18457;52.432;16.914;2023-03-03T15:43:35;33.90;;;14.10;;
31910;SDS011;18457;52.432;16.914;2023-03-03T15:46:17;34.70;;;14.70;;